Hlavní strana
METAR-TAF:

METAR-TAF

Letiště :

Atlanta, Georgie, Spojené státy americké

zeměpisná šířka: 33-46-39N, zeměpisná délka: 084-31-28W, výška: 256 m

Aktuální stav počasí

Zpráva byla vytvořena před 16 minutami, v 10:53 UTC
Bezvětří
Teplota 20°C
Vlhkost vzduchu 94%
Tlak 1022 hPa
Viditelnost: 12.9 km
Jasno

METAR: KFTY 241053Z 00000KT 8SM CLR 20/19 A3018 RMK AO2 SLP209 T02000189

Čas: 07:09 (11:09 UTC)

Předpověď počasí

Zpráva byla vytvořena před 5 hodinami a 39 minutami, v 05:30 UTC
Předpověď platná od 24 v 06 UTC do 25 v 06 UTC
vítr z různých směrů 3 kt
Viditelnost: 10 km
Skoro jasno ve výšce 8000 ft
Od 24 v 1500 UTC
Západní vítr 5 kt
Viditelnost: 10 km
Skoro jasno ve výšce 4500 ft
Od 25 v 0100 UTC
Severní vítr kt
Viditelnost: 10 km
Skoro jasno ve výšce 6000 ft
Polojasno ve výšce 25000 ft

TAF: KFTY 240530Z 2406/2506 VRB03KT P6SM FEW080 FM241500 26005KT P6SM FEW045 FM250100 00000KT P6SM FEW060 SCT250

Stav a předpovědi počasí z více než 4 000 letišť (zprávy METAR a TAF).

Červené a žluté tečky na mapě představují dostupné meteorologické stanice.

Když kurzor umístíte na tečku, zobrazí se název stanice.

Pak kliknutím zobrazíte stav a předpověď počasí.

Chcete-li změnit mapu, kliknutím na zelené tlačítko se znaménkem +mapu přiblížíte, kliknutím na zelené tlačítko se znaménkem – mapu oddálíte a kliknutím na zelené šipky přejdete na sousední mapy.


METAR-TAF: